Time;durP1;ratioP1;P1;durP2;ratioP2;P2;SDS_P1;SDS_P2;PMS_P1;PMS_P2;Temp;Humidity;BMP_temperature;BMP_pressure;BME280_temperature;BME280_humidity;BME280_pressure;Samples;Min_cycle;Max_cycle;Signal;HPM_P1;HPM_P2
2022/09/10 00:00:03;;;;;;;;;;;;;;;12.71;100.00;100419.44;5030993;28;19944;-86
2022/09/10 00:02:38;;;;;;;;;;;;;;;12.72;100.00;100421.88;5028232;28;19925;-85
2022/09/10 00:05:12;;;;;;;;;;;;;;;12.69;100.00;100411.56;5055905;28;19936;-86
2022/09/10 00:07:45;;;;;;;;;;;;;;;12.69;100.00;100408.00;5041410;28;20286;-86
2022/09/10 00:10:12;;;;;;;;;;;;;;;12.72;100.00;100410.16;5052047;28;20378;-86
2022/09/10 00:12:47;;;;;;;;;;;;;;;12.73;100.00;100415.31;5029253;28;19928;-85
2022/09/10 00:15:19;;;;;;;;;;;;;;;12.73;100.00;100412.56;5045959;28;19928;-86
2022/09/10 00:17:52;;;;;;;;;;;;;;;12.78;100.00;100413.59;5032283;28;19924;-86
2022/09/10 00:20:21;;;;;;;;;;;;;;;12.72;100.00;100412.88;5030775;28;20362;-86
2022/09/10 00:22:54;;;;;;;;;;;;;;;12.72;100.00;100413.69;5034067;28;19921;-86
2022/09/10 00:25:22;;;;;;;;;;;;;;;12.73;100.00;100420.75;5031131;28;19932;-86
2022/09/10 00:27:55;;;;;;;;;;;;;;;12.80;100.00;100427.75;5043523;28;19943;-85
2022/09/10 00:30:28;;;;;;;;;;;;;;;12.81;100.00;100429.38;5056127;28;20265;-86
2022/09/10 00:33:01;;;;;;;;;;;;;;;12.81;100.00;100432.91;5051879;28;20381;-85
2022/09/10 00:35:36;;;;;;;;;;;;;;;12.82;100.00;100429.06;5044138;28;19920;-85
2022/09/10 00:38:09;;;;;;;;;;;;;;;12.81;100.00;100424.69;5034350;28;19928;-86
2022/09/10 00:40:37;;;;;;;;;;;;;;;12.83;100.00;100425.22;5033609;28;19948;-86
2022/09/10 00:43:10;;;;;;;;;;;;;;;12.88;100.00;100427.84;5027166;28;19921;-86
2022/09/10 00:45:43;;;;;;;;;;;;;;;12.83;100.00;100419.78;5015892;28;19921;-86
2022/09/10 00:48:14;;;;;;;;;;;;;;;12.87;100.00;100422.69;5047659;28;19948;-86
2022/09/10 00:50:50;;;;;;;;;;;;;;;12.85;100.00;100427.66;5050984;28;19928;-86
2022/09/10 00:53:21;;;;;;;;;;;;;;;12.85;100.00;100424.94;5042821;28;20294;-87
2022/09/10 00:55:55;;;;;;;;;;;;;;;12.87;100.00;100428.97;5037456;28;19921;-86
2022/09/10 00:58:28;;;;;;;;;;;;;;;12.89;100.00;100425.94;5052423;28;19928;-86
2022/09/10 01:01:02;;;;;;;;;;;;;;;12.87;100.00;100428.16;5025049;28;19947;-86
2022/09/10 01:03:35;;;;;;;;;;;;;;;12.81;100.00;100421.19;5032295;28;19921;-87
2022/09/10 01:06:10;;;;;;;;;;;;;;;12.82;100.00;100423.59;5047804;28;19929;-87
2022/09/10 01:08:42;;;;;;;;;;;;;;;12.81;100.00;100423.91;5027604;28;20481;-87
2022/09/10 01:11:26;;;;;;;;;;;;;;;12.81;100.00;100415.72;5034382;28;19921;-86
2022/09/10 01:14:08;;;;;;;;;;;;;;;12.84;100.00;100418.66;5057307;28;19921;-86
2022/09/10 01:16:47;;;;;;;;;;;;;;;12.86;100.00;100418.34;5049573;28;20399;-86
2022/09/10 01:19:32;;;;;;;;;;;;;;;12.81;100.00;100429.38;5026249;28;19921;-86
2022/09/10 01:22:06;;;;;;;;;;;;;;;12.84;100.00;100428.75;5021215;28;19921;-86
2022/09/10 01:24:53;;;;;;;;;;;;;;;12.85;100.00;100427.66;5044105;28;20297;-86
2022/09/10 01:27:34;;;;;;;;;;;;;;;12.86;100.00;100432.00;5032492;28;19936;-86
2022/09/10 01:30:05;;;;;;;;;;;;;;;12.85;100.00;100433.91;5027977;28;19921;-86
2022/09/10 01:32:39;;;;;;;;;;;;;;;12.88;100.00;100436.03;5030286;28;19928;-87
2022/09/10 01:35:15;;;;;;;;;;;;;;;12.84;100.00;100443.25;5026989;28;19948;-86
2022/09/10 01:37:49;;;;;;;;;;;;;;;12.85;100.00;100436.66;5039870;28;19933;-87
2022/09/10 01:40:28;;;;;;;;;;;;;;;12.85;100.00;100433.91;5028326;28;19928;-87
2022/09/10 01:43:08;;;;;;;;;;;;;;;12.88;100.00;100443.44;5035188;28;19921;-87
2022/09/10 01:45:54;;;;;;;;;;;;;;;12.85;100.00;100436.66;5064506;28;19935;-86
2022/09/10 01:48:41;;;;;;;;;;;;;;;12.89;100.00;100439.59;5024315;28;19925;-85
2022/09/10 01:51:18;;;;;;;;;;;;;;;12.82;100.00;100439.19;5018987;28;20396;-86
2022/09/10 01:54:01;;;;;;;;;;;;;;;12.80;100.00;100436.75;5026753;28;19925;-85
2022/09/10 01:56:34;;;;;;;;;;;;;;;12.85;100.00;100435.84;5047189;28;19928;-85
2022/09/10 01:59:13;;;;;;;;;;;;;;;12.86;100.00;100440.22;5045621;28;19928;-86
2022/09/10 02:01:49;;;;;;;;;;;;;;;12.87;100.00;100439.06;5040465;28;19921;-86
2022/09/10 02:04:19;;;;;;;;;;;;;;;12.83;100.00;100438.88;5042049;28;19925;-86
2022/09/10 02:06:52;;;;;;;;;;;;;;;12.87;100.00;100439.91;5031546;28;19925;-86
2022/09/10 02:09:25;;;;;;;;;;;;;;;12.90;100.00;100446.69;5025762;28;19921;-86
2022/09/10 02:11:54;;;;;;;;;;;;;;;12.89;100.00;100451.31;5072485;28;19925;-87
2022/09/10 02:14:52;;;;;;;;;;;;;;;12.91;100.00;100442.81;5063471;28;19921;-86
2022/09/10 02:17:46;;;;;;;;;;;;;;;12.88;100.00;100444.22;5020650;28;19921;-87
2022/09/10 02:20:20;;;;;;;;;;;;;;;12.86;100.00;100440.22;5044561;28;20305;-87
2022/09/10 02:22:55;;;;;;;;;;;;;;;12.89;100.00;100445.84;5023508;28;19925;-85
2022/09/10 02:25:31;;;;;;;;;;;;;;;12.86;100.00;100438.28;5061902;28;19939;-86
2022/09/10 02:28:04;;;;;;;;;;;;;;;12.87;100.00;100456.28;5028673;28;19928;-86
2022/09/10 02:30:34;;;;;;;;;;;;;;;12.90;100.00;100450.22;5068623;28;19932;-87
2022/09/10 02:33:02;;;;;;;;;;;;;;;12.86;100.00;100453.88;5036759;28;19925;-87
2022/09/10 02:35:35;;;;;;;;;;;;;;;12.89;100.00;100445.84;5022629;28;19928;-87
2022/09/10 02:38:08;;;;;;;;;;;;;;;12.93;100.00;100459.72;5035273;28;20333;-86
2022/09/10 02:40:42;;;;;;;;;;;;;;;12.93;100.00;100459.72;5030846;28;19928;-86
2022/09/10 02:43:09;;;;;;;;;;;;;;;12.94;100.00;100464.09;5034533;28;19925;-87
2022/09/10 02:45:44;;;;;;;;;;;;;;;12.90;100.00;100466.59;5027471;28;19925;-86
2022/09/10 02:48:13;;;;;;;;;;;;;;;12.95;100.00;100462.97;5037694;28;19928;-87
2022/09/10 02:50:44;;;;;;;;;;;;;;;12.88;100.00;100459.81;5054453;28;19921;-86
2022/09/10 02:53:12;;;;;;;;;;;;;;;12.92;100.00;100460.84;5050307;28;19932;-87
2022/09/10 02:55:47;;;;;;;;;;;;;;;12.90;100.00;100446.69;5023901;28;19932;-86
2022/09/10 02:58:16;;;;;;;;;;;;;;;12.88;100.00;100455.16;5021930;28;20290;-86
2022/09/10 03:00:51;;;;;;;;;;;;;;;12.92;100.00;100449.91;5036051;28;19925;-87
2022/09/10 03:03:24;;;;;;;;;;;;;;;12.88;100.00;100451.63;5028293;28;19925;-85
2022/09/10 03:05:52;;;;;;;;;;;;;;;12.89;100.00;100437.66;5032663;28;19924;-86
2022/09/10 03:08:20;;;;;;;;;;;;;;;12.92;100.00;100439.00;5061052;28;20374;-86
2022/09/10 03:10:54;;;;;;;;;;;;;;;12.91;100.00;100437.34;5022442;28;20393;-86
2022/09/10 03:13:27;;;;;;;;;;;;;;;12.89;100.00;100439.59;5038397;28;20382;-86
2022/09/10 03:16:02;;;;;;;;;;;;;;;12.90;100.00;100435.75;5030738;28;19925;-87
2022/09/10 03:18:35;;;;;;;;;;;;;;;12.90;100.00;100441.22;5026185;28;19920;-87
2022/09/10 03:21:11;;;;;;;;;;;;;;;12.85;100.00;100436.66;5022710;28;20291;-86
2022/09/10 03:23:45;;;;;;;;;;;;;;;12.87;100.00;100439.06;5057265;28;19921;-87
2022/09/10 03:26:25;;;;;;;;;;;;;;;12.89;100.00;100439.59;5078658;28;19936;-87
2022/09/10 03:28:54;;;;;;;;;;;;;;;12.92;100.00;100436.25;5016674;28;20232;-87
2022/09/10 03:31:31;;;;;;;;;;;;;;;12.94;100.00;100436.78;5033817;28;19924;-87
2022/09/10 03:34:05;;;;;;;;;;;;;;;12.94;100.00;100436.78;5035657;28;19932;-88
2022/09/10 03:36:38;;;;;;;;;;;;;;;12.97;100.00;100436.16;5051799;28;19932;-86
2022/09/10 03:39:07;;;;;;;;;;;;;;;12.96;100.00;100433.75;5060313;28;19925;-87
2022/09/10 03:41:40;;;;;;;;;;;;;;;12.97;100.00;100432.59;5059969;28;19929;-87
2022/09/10 03:44:16;;;;;;;;;;;;;;;12.92;100.00;100428.84;5026157;28;19925;-87
2022/09/10 03:46:51;;;;;;;;;;;;;;;12.92;100.00;100437.06;5026705;28;19932;-86
2022/09/10 03:49:24;;;;;;;;;;;;;;;12.87;100.00;100433.59;5058533;28;19925;-86
2022/09/10 03:51:52;;;;;;;;;;;;;;;12.87;100.00;100428.97;5036376;28;19922;-86
2022/09/10 03:54:25;;;;;;;;;;;;;;;12.81;100.00;100424.69;5030705;28;20362;-87
2022/09/10 03:57:01;;;;;;;;;;;;;;;12.83;100.00;100424.41;5021152;28;19925;-86
2022/09/10 03:59:31;;;;;;;;;;;;;;;12.85;100.00;100431.19;5043180;28;20309;-87
2022/09/10 04:02:02;;;;;;;;;;;;;;;12.86;100.00;100415.63;5051048;28;19932;-88
2022/09/10 04:04:31;;;;;;;;;;;;;;;12.87;100.00;100425.41;5029465;28;19929;-87
2022/09/10 04:07:04;;;;;;;;;;;;;;;12.86;100.00;100424.63;5022308;28;19921;-87
2022/09/10 04:09:37;;;;;;;;;;;;;;;12.82;100.00;100431.00;5029343;28;19928;-86
2022/09/10 04:12:05;;;;;;;;;;;;;;;12.78;100.00;100438.97;5027400;28;19925;-87
2022/09/10 04:14:37;;;;;;;;;;;;;;;12.67;100.00;100443.78;5018257;28;19925;-86
2022/09/10 04:17:14;;;;;;;;;;;;;;;12.59;100.00;100453.50;5051249;28;19932;-87
2022/09/10 04:19:47;;;;;;;;;;;;;;;12.58;100.00;100449.13;5032282;28;20227;-87
2022/09/10 04:22:21;;;;;;;;;;;;;;;12.64;100.00;100449.06;5030649;28;19935;-87
2022/09/10 04:24:54;;;;;;;;;;;;;;;12.68;100.00;100455.53;5043456;28;20413;-87
2022/09/10 04:27:22;;;;;;;;;;;;;;;12.71;100.00;100455.72;5046106;28;19921;-85
2022/09/10 04:29:53;;;;;;;;;;;;;;;12.75;100.00;100464.16;5027396;28;19925;-86
2022/09/10 04:32:27;;;;;;;;;;;;;;;12.72;100.00;100468.28;5029483;28;20288;-85
2022/09/10 04:35:01;;;;;;;;;;;;;;;12.73;100.00;100463.63;5063463;28;19975;-86
2022/09/10 04:37:34;;;;;;;;;;;;;;;12.67;100.00;100467.56;5042116;28;19936;-87
2022/09/10 04:40:04;;;;;;;;;;;;;;;12.69;100.00;100468.88;5032607;28;19925;-87
2022/09/10 04:42:35;;;;;;;;;;;;;;;12.66;100.00;100472.19;5039308;28;19925;-86
2022/09/10 04:45:09;;;;;;;;;;;;;;;12.64;100.00;100470.91;5026892;28;20293;-85
2022/09/10 04:47:38;;;;;;;;;;;;;;;12.68;100.00;100474.66;5047614;28;19929;-86
2022/09/10 04:50:14;;;;;;;;;;;;;;;12.66;100.00;100480.38;5052352;28;20398;-87
2022/09/10 04:53:07;;;;;;;;;;;;;;;12.69;100.00;100471.63;5026231;28;20374;-86
2022/09/10 04:55:43;;;;;;;;;;;;;;;12.70;100.00;100470.50;5058273;28;19921;-87
2022/09/10 04:58:12;;;;;;;;;;;;;;;12.70;100.00;100470.50;5026703;28;19926;-88
2022/09/10 05:00:41;;;;;;;;;;;;;;;12.70;100.00;100470.50;5041962;28;19921;-86
2022/09/10 05:03:16;;;;;;;;;;;;;;;12.71;100.00;100472.13;5043152;28;19925;-86
2022/09/10 05:05:49;;;;;;;;;;;;;;;12.73;100.00;100464.44;5029751;28;19925;-87
2022/09/10 05:08:23;;;;;;;;;;;;;;;12.79;100.00;100469.81;5047654;28;19925;-87
2022/09/10 05:10:57;;;;;;;;;;;;;;;12.78;100.00;100474.47;5030124;28;20400;-86
2022/09/10 05:13:30;;;;;;;;;;;;;;;12.77;100.00;100470.09;5033249;28;19924;-87
2022/09/10 05:16:04;;;;;;;;;;;;;;;12.75;100.00;100464.94;5034517;28;19932;-87
2022/09/10 05:18:38;;;;;;;;;;;;;;;12.77;100.00;100481.03;5027454;28;19921;-86
2022/09/10 05:21:11;;;;;;;;;;;;;;;12.73;100.00;100464.44;5041600;28;20381;-87
2022/09/10 05:23:41;;;;;;;;;;;;;;;12.77;100.00;100481.03;5053026;28;19924;-86
2022/09/10 05:26:14;;;;;;;;;;;;;;;12.79;100.00;100475.25;5028898;28;19925;-87
2022/09/10 05:28:48;;;;;;;;;;;;;;;12.80;100.00;100469.53;5054355;28;20390;-86
2022/09/10 05:31:21;;;;;;;;;;;;;;;12.87;100.00;100475.41;5044119;28;19932;-88
2022/09/10 05:33:50;;;;;;;;;;;;;;;12.88;100.00;100474.28;5034682;28;19921;-87
2022/09/10 05:36:23;;;;;;;;;;;;;;;12.96;100.00;100480.19;5036972;28;20349;-87
2022/09/10 05:38:57;;;;;;;;;;;;;;;13.03;100.00;100480.59;5058264;28;20293;-87
2022/09/10 05:41:26;;;;;;;;;;;;;;;13.02;100.00;100474.31;5030986;28;19928;-88
2022/09/10 05:43:56;;;;;;;;;;;;;;;13.10;100.00;100481.81;5033285;28;19928;-87
2022/09/10 05:46:29;;;;;;;;;;;;;;;13.14;100.00;100482.00;5028710;28;19921;-88
2022/09/10 05:49:11;;;;;;;;;;;;;;;13.19;100.00;100486.59;5048174;28;19932;-87
2022/09/10 05:51:45;;;;;;;;;;;;;;;13.22;100.00;100488.72;5018531;28;19925;-86
2022/09/10 05:54:13;;;;;;;;;;;;;;;13.27;100.00;100494.06;5053095;28;20405;-87
2022/09/10 05:56:45;;;;;;;;;;;;;;;13.29;100.00;100489.13;5025626;28;19920;-86
2022/09/10 05:59:19;;;;;;;;;;;;;;;13.26;100.00;100489.72;5032937;28;19921;-88
2022/09/10 06:01:54;;;;;;;;;;;;;;;13.24;100.00;100492.75;5021895;28;19925;-88
2022/09/10 06:04:29;;;;;;;;;;;;;;;13.29;100.00;100491.06;5035275;28;19928;-88
2022/09/10 06:07:03;;;;;;;;;;;;;;;13.31;100.00;100486.88;5023333;28;19925;-88
2022/09/10 06:09:31;;;;;;;;;;;;;;;13.31;100.00;100486.88;5045175;28;19921;-87
2022/09/10 06:12:05;;;;;;;;;;;;;;;13.35;100.00;100487.91;5030969;28;19928;-88
2022/09/10 06:14:38;;;;;;;;;;;;;;;13.33;100.00;100486.59;5030413;28;19931;-88
2022/09/10 06:17:07;;;;;;;;;;;;;;;13.39;100.00;100485.41;5038306;28;19928;-87
2022/09/10 06:19:39;;;;;;;;;;;;;;;13.41;100.00;100491.38;5021248;28;19921;-88
2022/09/10 06:22:09;;;;;;;;;;;;;;;13.44;100.00;100486.09;5059801;28;19928;-89
2022/09/10 06:24:48;;;;;;;;;;;;;;;13.46;100.00;100498.66;5041403;28;19921;-88
2022/09/10 06:27:22;;;;;;;;;;;;;;;13.48;100.00;100502.72;5020951;28;20088;-88
2022/09/10 06:29:55;;;;;;;;;;;;;;;13.52;100.00;100497.44;5024998;28;20402;-89
2022/09/10 06:32:28;;;;;;;;;;;;;;;13.48;100.00;100507.38;5030404;28;19921;-89
2022/09/10 06:35:03;;;;;;;;;;;;;;;13.47;100.00;100512.03;5032913;28;19924;-88
2022/09/10 06:37:33;;;;;;;;;;;;;;;13.52;100.00;100509.19;5023661;28;19921;-88
2022/09/10 06:40:09;;;;;;;;;;;;;;;13.51;100.00;100506.78;5037481;28;19928;-88
2022/09/10 06:42:43;;;;;;;;;;;;;;;13.53;100.00;100507.28;5032646;28;19921;-89
2022/09/10 06:45:19;;;;;;;;;;;;;;;13.53;100.00;100499.06;5053173;28;19932;-89
2022/09/10 06:48:18;;;;;;;;;;;;;;;13.57;100.00;100503.63;5011303;28;19921;-87
2022/09/10 06:50:56;;;;;;;;;;;;;;;13.54;100.00;100511.63;5039489;28;19932;-88
2022/09/10 06:53:34;;;;;;;;;;;;;;;13.65;100.00;100502.09;5036960;28;19921;-90
2022/09/10 06:56:10;;;;;;;;;;;;;;;13.65;100.00;100499.38;5025552;28;19921;-87
2022/09/10 06:58:39;;;;;;;;;;;;;;;13.67;100.00;100510.81;5028768;28;19927;-89
2022/09/10 07:01:08;;;;;;;;;;;;;;;13.74;100.00;100502.19;5031453;28;19932;-88
2022/09/10 07:03:48;;;;;;;;;;;;;;;13.83;100.00;100500.38;5041595;28;19927;-89
2022/09/10 07:06:23;;;;;;;;;;;;;;;13.94;100.00;100503.69;5040429;28;19925;-88
2022/09/10 07:09:04;;;;;;;;;;;;;;;13.94;100.00;100509.16;5040441;28;19925;-88
2022/09/10 07:11:37;;;;;;;;;;;;;;;14.00;100.00;100510.66;5054689;28;20297;-89
2022/09/10 07:14:13;;;;;;;;;;;;;;;14.09;100.00;100508.81;5056675;28;19925;-88
2022/09/10 07:16:46;;;;;;;;;;;;;;;14.15;100.00;100512.25;5029582;28;19936;-89
2022/09/10 07:19:16;;;;;;;;;;;;;;;14.22;100.00;100515.38;5021105;28;19925;-87
2022/09/10 07:21:51;;;;;;;;;;;;;;;14.33;100.00;100510.47;5023529;28;19932;-89
2022/09/10 07:24:20;;;;;;;;;;;;;;;14.32;100.00;100519.81;5057604;28;19935;-89
2022/09/10 07:27:12;;;;;;;;;;;;;;;14.41;100.00;100514.41;5022329;28;19936;-90
2022/09/10 07:29:42;;;;;;;;;;;;;;;14.42;100.00;100514.09;5056569;28;19928;-88
2022/09/10 07:32:14;;;;;;;;;;;;;;;14.49;100.00;100515.63;5035514;28;19932;-88
2022/09/10 07:34:51;;;;;;;;;;;;;;;14.58;100.00;100520.03;5041595;28;20313;-89
2022/09/10 07:37:28;;;;;;;;;;;;;;;14.60;100.00;100516.97;5024730;28;19928;-89
2022/09/10 07:40:03;;;;;;;;;;;;;;;14.77;100.00;100521.78;5024848;28;20404;-89
2022/09/10 07:42:36;;;;;;;;;;;;;;;14.80;100.00;100526.66;5039132;28;19936;-89
2022/09/10 07:45:06;;;;;;;;;;;;;;;14.76;100.00;100531.13;5037200;28;20386;-89
2022/09/10 07:47:39;;;;;;;;;;;;;;;14.88;100.00;100530.56;5015270;28;19932;-89
2022/09/10 07:50:08;;;;;;;;;;;;;;;14.86;100.00;100528.16;5018035;28;19928;-89
2022/09/10 07:52:42;;;;;;;;;;;;;;;14.96;100.00;100524.34;5055381;28;19925;-89
2022/09/10 07:55:12;;;;;;;;;;;;;;;14.95;100.00;100526.25;5023154;28;20409;-87
2022/09/10 07:57:45;;;;;;;;;;;;;;;14.99;100.00;100531.13;5036480;28;19924;-89
2022/09/10 08:00:18;;;;;;;;;;;;;;;15.14;100.00;100528.00;5039781;28;20382;-89
2022/09/10 08:02:51;;;;;;;;;;;;;;;15.14;100.00;100533.47;5024652;28;19925;-86
2022/09/10 08:05:21;;;;;;;;;;;;;;;15.23;100.00;100538.97;5051733;28;20317;-86
2022/09/10 08:07:55;;;;;;;;;;;;;;;15.34;100.00;100534.84;5029130;28;19925;-89
2022/09/10 08:10:29;;;;;;;;;;;;;;;15.40;100.00;100538.28;5033785;28;19920;-88
2022/09/10 08:13:02;;;;;;;;;;;;;;;15.58;100.00;100533.66;5037727;28;19921;-88
2022/09/10 08:15:31;;;;;;;;;;;;;;;15.67;100.00;100533.69;5028306;28;19932;-88
2022/09/10 08:18:01;;;;;;;;;;;;;;;15.73;100.00;100532.41;5028473;28;20468;-88
2022/09/10 08:20:34;;;;;;;;;;;;;;;15.68;100.00;100538.84;5044902;28;19932;-89
2022/09/10 08:23:09;;;;;;;;;;;;;;;15.71;100.00;100537.41;5021315;28;19928;-88
2022/09/10 08:25:37;;;;;;;;;;;;;;;15.80;100.00;100538.28;5028801;28;20300;-89
2022/09/10 08:28:10;;;;;;;;;;;;;;;15.77;100.00;100541.63;5034482;28;19932;-88
2022/09/10 08:30:43;;;;;;;;;;;;;;;15.90;100.00;100540.72;5026255;28;20297;-87
2022/09/10 08:33:17;;;;;;;;;;;;;;;15.87;100.00;100555.09;5025167;28;19937;-87
2022/09/10 08:35:52;;;;;;;;;;;;;;;15.99;100.00;100554.47;5052361;28;19925;-88
2022/09/10 08:38:30;;;;;;;;;;;;;;;16.07;100.00;100561.91;5027119;28;19930;-86
2022/09/10 08:41:09;;;;;;;;;;;;;;;16.09;100.00;100553.38;5030001;28;19928;-85
2022/09/10 08:43:44;;;;;;;;;;;;;;;15.94;100.00;100560.13;5030559;28;19922;-85
2022/09/10 08:46:21;;;;;;;;;;;;;;;16.10;100.00;100561.28;5025073;28;19921;-85
2022/09/10 08:49:02;;;;;;;;;;;;;;;16.24;100.00;100565.81;5024502;28;19926;-84
2022/09/10 08:51:40;;;;;;;;;;;;;;;16.23;100.00;100561.47;5027558;28;19934;-83
2022/09/10 08:54:19;;;;;;;;;;;;;;;16.14;100.00;100565.00;5023416;28;19936;-84
2022/09/10 08:56:57;;;;;;;;;;;;;;;16.10;100.00;100576.94;5028276;28;19926;-83
2022/09/10 08:59:32;;;;;;;;;;;;;;;16.29;100.00;100563.72;5027054;28;19933;-83
2022/09/10 09:02:15;;;;;;;;;;;;;;;16.26;100.00;100564.34;5036740;28;19932;-82
2022/09/10 09:04:50;;;;;;;;;;;;;;;16.32;100.00;100568.59;5020095;28;19922;-83
2022/09/10 09:07:24;;;;;;;;;;;;;;;16.38;100.00;100563.75;5053734;28;19921;-83
2022/09/10 09:10:00;;;;;;;;;;;;;;;16.50;100.00;100560.34;5024871;28;19925;-84
2022/09/10 09:12:39;;;;;;;;;;;;;;;16.52;100.00;100571.00;5031590;28;19928;-84
2022/09/10 09:15:10;;;;;;;;;;;;;;;16.63;100.00;100573.13;5020933;28;19925;-85
2022/09/10 09:17:51;;;;;;;;;;;;;;;16.66;100.00;100572.47;5058395;28;19921;-86
2022/09/10 09:20:30;;;;;;;;;;;;;;;16.88;100.00;100569.88;5034303;28;19932;-85
2022/09/10 09:23:07;;;;;;;;;;;;;;;16.75;100.00;100574.41;5024548;28;19924;-85
2022/09/10 09:25:46;;;;;;;;;;;;;;;17.05;100.00;100578.09;5024079;28;19925;-85
2022/09/10 09:28:26;;;;;;;;;;;;;;;17.15;100.00;100571.44;5026286;28;19929;-84
2022/09/10 09:31:04;;;;;;;;;;;;;;;17.35;100.00;100572.72;5057173;28;20084;-85
2022/09/10 09:33:38;;;;;;;;;;;;;;;17.22;100.00;100587.47;5021975;28;19928;-84
2022/09/10 09:36:15;;;;;;;;;;;;;;;17.38;100.00;100585.81;5020784;28;19936;-86
2022/09/10 09:38:49;;;;;;;;;;;;;;;17.29;100.00;100585.00;5025440;28;19921;-85
2022/09/10 09:41:29;;;;;;;;;;;;;;;17.20;100.00;100584.25;5031451;28;19928;-87
2022/09/10 09:44:05;;;;;;;;;;;;;;;17.08;100.00;100584.91;5022835;28;19932;-86
2022/09/10 09:46:38;;;;;;;;;;;;;;;17.12;100.00;100583.94;5020512;28;19921;-86
2022/09/10 09:49:15;;;;;;;;;;;;;;;17.14;100.00;100587.16;5068023;28;19936;-84
2022/09/10 09:51:50;;;;;;;;;;;;;;;17.27;100.00;100584.53;5038665;28;19928;-84
2022/09/10 09:54:26;;;;;;;;;;;;;;;17.34;100.00;100584.84;5029395;28;19932;-86
2022/09/10 09:57:01;;;;;;;;;;;;;;;17.17;100.00;100589.25;5043162;28;19927;-84
2022/09/10 09:59:30;;;;;;;;;;;;;;;17.19;100.00;100582.63;5048461;28;20297;-84
2022/09/10 10:02:05;;;;;;;;;;;;;;;17.42;100.00;100584.00;5017433;28;19921;-84
2022/09/10 10:04:40;;;;;;;;;;;;;;;17.28;100.00;100589.72;5041185;28;20309;-86
2022/09/10 10:07:13;;;;;;;;;;;;;;;17.09;100.00;100592.81;5056147;28;19925;-87
2022/09/10 10:09:42;;;;;;;;;;;;;;;17.10;100.00;100601.91;5037927;28;19922;-86
2022/09/10 10:12:20;;;;;;;;;;;;;;;17.22;100.00;100602.03;5047572;28;19928;-85
2022/09/10 10:14:53;;;;;;;;;;;;;;;17.15;100.00;100605.28;5028924;28;20593;-85
2022/09/10 10:17:34;;;;;;;;;;;;;;;17.21;100.00;100602.34;5034782;28;19932;-84
2022/09/10 10:20:08;;;;;;;;;;;;;;;17.19;100.00;100593.63;5024854;28;20313;-85
2022/09/10 10:22:41;;;;;;;;;;;;;;;17.27;100.00;100601.84;5020855;28;19925;-84
2022/09/10 10:25:35;;;;;;;;;;;;;;;17.36;100.00;100603.75;5066314;28;20270;-85
2022/09/10 10:28:21;;;;;;;;;;;;;;;17.49;100.00;100600.00;5031231;28;19924;-84
2022/09/10 10:30:51;;;;;;;;;;;;;;;17.27;100.00;100596.34;5036153;28;19929;-85
2022/09/10 10:33:27;;;;;;;;;;;;;;;17.37;100.00;100603.44;5028806;28;19921;-85
2022/09/10 10:36:03;;;;;;;;;;;;;;;17.47;100.00;100594.84;5029599;28;19940;-84
2022/09/10 10:38:38;;;;;;;;;;;;;;;17.60;100.00;100597.72;5027005;28;20305;-85
2022/09/10 10:41:25;;;;;;;;;;;;;;;17.58;100.00;100600.78;5071570;28;19947;-84
2022/09/10 10:44:00;;;;;;;;;;;;;;;17.57;100.00;100601.94;5038769;28;19924;-84
2022/09/10 10:46:40;;;;;;;;;;;;;;;17.66;100.00;100597.19;5038841;28;19925;-84
2022/09/10 10:49:18;;;;;;;;;;;;;;;17.66;100.00;100594.44;5031162;28;19925;-84
2022/09/10 10:51:55;;;;;;;;;;;;;;;17.68;100.00;100605.13;5025017;28;19928;-85
2022/09/10 10:54:38;;;;;;;;;;;;;;;17.71;100.00;100600.91;5026588;28;19932;-83
2022/09/10 10:57:18;;;;;;;;;;;;;;;17.89;100.00;100591.41;5006093;28;19922;-82
2022/09/10 10:59:56;;;;;;;;;;;;;;;17.93;100.00;100606.16;5019974;28;21253;-82
2022/09/10 11:02:33;;;;;;;;;;;;;;;18.09;100.00;100592.66;5000656;28;19984;-81
2022/09/10 11:05:16;;;;;;;;;;;;;;;18.01;100.00;100604.53;5001197;28;19940;-84
2022/09/10 11:07:46;;;;;;;;;;;;;;;17.94;100.00;100594.03;5003720;28;19929;-83
2022/09/10 11:10:23;;;;;;;;;;;;;;;18.11;100.00;100595.06;5010450;28;19929;-84
2022/09/10 11:12:54;;;;;;;;;;;;;;;18.22;100.00;100592.75;5006885;28;19936;-83
2022/09/10 11:15:29;;;;;;;;;;;;;;;18.43;100.00;100596.31;5025833;28;19929;-82
2022/09/10 11:18:06;;;;;;;;;;;;;;;18.37;100.00;100597.66;5002506;28;19936;-82
2022/09/10 11:20:37;;;;;;;;;;;;;;;18.23;100.00;100591.59;5010026;28;19925;-83
2022/09/10 11:23:18;;;;;;;;;;;;;;;18.14;100.00;100594.41;5037452;28;19929;-83
2022/09/10 11:25:54;;;;;;;;;;;;;;;18.19;100.00;100603.28;5006008;28;21098;-85
2022/09/10 11:28:26;;;;;;;;;;;;;;;18.14;100.00;100597.94;5011384;28;20365;-83
2022/09/10 11:31:03;;;;;;;;;;;;;;;18.13;100.00;100598.28;5010583;28;19929;-82
2022/09/10 11:33:39;;;;;;;;;;;;;;;18.50;100.00;100593.81;5008461;28;19929;-83
2022/09/10 11:36:17;;;;;;;;;;;;;;;18.36;100.00;100596.03;5018951;28;19936;-82
2022/09/10 11:38:59;;;;;;;;;;;;;;;18.06;100.00;100601.56;5004853;28;19940;-82
2022/09/10 11:41:34;;;;;;;;;;;;;;;17.83;100.00;100595.50;5001931;28;19936;-84
2022/09/10 11:44:13;;;;;;;;;;;;;;;17.77;100.00;100600.41;5004415;28;19928;-82
2022/09/10 11:46:51;;;;;;;;;;;;;;;17.85;100.00;100598.72;5017730;28;19921;-83
2022/09/10 11:49:29;;;;;;;;;;;;;;;17.91;100.00;100586.44;5036133;28;19929;-84
2022/09/10 11:52:02;;;;;;;;;;;;;;;17.91;100.00;100580.06;5041363;28;19928;-84
2022/09/10 11:54:35;;;;;;;;;;;;;;;17.80;100.00;100587.91;5051604;28;19921;-84
2022/09/10 11:57:13;;;;;;;;;;;;;;;17.80;100.00;100588.72;5032797;28;19929;-84
2022/09/10 12:00:00;;;;;;;;;;;;;;;18.14;100.00;100583.38;5022375;28;19921;-83
2022/09/10 12:02:56;;;;;;;;;;;;;;;18.24;100.00;100579.44;5035112;28;19925;-84
2022/09/10 12:05:32;;;;;;;;;;;;;;;18.39;100.00;100575.28;5043263;28;20393;-84
2022/09/10 12:08:10;;;;;;;;;;;;;;;18.42;100.00;100569.91;5042611;28;19920;-83
2022/09/10 12:10:48;;;;;;;;;;;;;;;18.53;100.00;100571.13;5027761;28;19931;-84
2022/09/10 12:13:21;;;;;;;;;;;;;;;18.62;100.00;100570.25;5024487;28;19921;-85
2022/09/10 12:15:57;;;;;;;;;;;;;;;18.57;100.00;100570.44;5033383;28;20203;-83
2022/09/10 12:18:28;;;;;;;;;;;;;;;18.52;100.00;100574.22;5054931;28;19925;-83
2022/09/10 12:21:04;;;;;;;;;;;;;;;18.56;100.00;100572.41;5024411;28;19921;-84
2022/09/10 12:23:38;;;;;;;;;;;;;;;18.69;100.00;100565.78;5032141;28;19921;-85
2022/09/10 12:26:14;;;;;;;;;;;;;;;18.67;100.00;100567.25;5031327;28;19932;-84
2022/09/10 12:28:57;;;;;;;;;;;;;;;18.73;100.00;100573.41;5018029;28;19940;-85
2022/09/10 12:31:58;;;;;;;;;;;;;;;18.80;100.00;100573.66;5019961;28;19932;-84
2022/09/10 12:34:32;;;;;;;;;;;;;;;18.69;100.00;100573.25;5024333;28;19925;-83
2022/09/10 12:37:20;;;;;;;;;;;;;;;18.70;100.00;100572.91;5043446;28;19928;-82
2022/09/10 12:40:23;;;;;;;;;;;;;;;18.64;100.00;100577.03;5050723;28;19924;-83
2022/09/10 12:42:57;;;;;;;;;;;;;;;18.61;100.00;100574.13;5025951;28;19922;-84
2022/09/10 12:45:49;;;;;;;;;;;;;;;18.50;100.00;100566.25;5019270;28;19929;-83
2022/09/10 12:48:22;;;;;;;;;;;;;;;18.41;100.00;100575.72;5036586;28;20358;-83
2022/09/10 12:50:59;;;;;;;;;;;;;;;18.36;100.00;100574.00;5032814;28;20255;-83
2022/09/10 12:53:59;;;;;;;;;;;;;;;18.44;100.00;100569.56;5020045;28;19920;-83
2022/09/10 12:56:49;;;;;;;;;;;;;;;18.43;100.00;100565.19;5024846;28;20076;-83
2022/09/10 12:59:35;;;;;;;;;;;;;;;18.55;100.00;100562.50;5023893;28;20352;-83
2022/09/10 13:02:26;;;;;;;;;;;;;;;18.53;100.00;100560.09;4997917;28;20404;-83
2022/09/10 13:04:57;;;;;;;;;;;;;;;18.61;100.00;100555.63;5052662;28;19924;-83
2022/09/10 13:07:39;;;;;;;;;;;;;;;18.67;100.00;100551.53;5022085;28;19927;-83